sensor_id;sensor_type;location;lat;lon;timestamp;P1;durP1;ratioP1;P2;durP2;ratioP2
57561;SDS011;43397;51.530;5.974;2022-12-07T00:00:31;33.70;;;21.90;;
57561;SDS011;43397;51.530;5.974;2022-12-07T00:02:57;34.90;;;20.65;;
57561;SDS011;43397;51.530;5.974;2022-12-07T00:05:22;34.72;;;22.23;;
57561;SDS011;43397;51.530;5.974;2022-12-07T00:07:48;31.58;;;21.90;;
57561;SDS011;43397;51.530;5.974;2022-12-07T00:10:16;35.22;;;22.85;;
57561;SDS011;43397;51.530;5.974;2022-12-07T00:12:41;30.90;;;22.67;;
57561;SDS011;43397;51.530;5.974;2022-12-07T00:15:07;35.58;;;22.73;;
57561;SDS011;43397;51.530;5.974;2022-12-07T00:17:34;33.38;;;21.60;;
57561;SDS011;43397;51.530;5.974;2022-12-07T00:20:00;35.40;;;23.98;;
57561;SDS011;43397;51.530;5.974;2022-12-07T00:22:25;35.20;;;22.83;;
57561;SDS011;43397;51.530;5.974;2022-12-07T00:24:51;35.47;;;22.60;;
57561;SDS011;43397;51.530;5.974;2022-12-07T00:27:18;31.67;;;21.45;;
57561;SDS011;43397;51.530;5.974;2022-12-07T00:29:44;34.10;;;21.50;;
57561;SDS011;43397;51.530;5.974;2022-12-07T00:32:10;37.22;;;23.60;;
57561;SDS011;43397;51.530;5.974;2022-12-07T00:34:35;33.00;;;21.55;;
57561;SDS011;43397;51.530;5.974;2022-12-07T00:37:01;36.20;;;23.27;;
57561;SDS011;43397;51.530;5.974;2022-12-07T00:39:27;37.95;;;24.25;;
57561;SDS011;43397;51.530;5.974;2022-12-07T00:41:52;36.35;;;23.35;;
57561;SDS011;43397;51.530;5.974;2022-12-07T00:44:19;37.03;;;22.98;;
57561;SDS011;43397;51.530;5.974;2022-12-07T00:46:45;37.10;;;22.70;;
57561;SDS011;43397;51.530;5.974;2022-12-07T00:49:11;37.85;;;24.42;;
57561;SDS011;43397;51.530;5.974;2022-12-07T00:51:37;36.47;;;23.15;;
57561;SDS011;43397;51.530;5.974;2022-12-07T00:54:03;38.47;;;25.33;;
57561;SDS011;43397;51.530;5.974;2022-12-07T00:56:29;33.20;;;22.90;;
57561;SDS011;43397;51.530;5.974;2022-12-07T00:58:55;33.45;;;22.25;;
57561;SDS011;43397;51.530;5.974;2022-12-07T01:01:25;31.48;;;21.48;;
57561;SDS011;43397;51.530;5.974;2022-12-07T01:03:52;32.47;;;21.60;;
57561;SDS011;43397;51.530;5.974;2022-12-07T01:06:18;35.08;;;22.15;;
57561;SDS011;43397;51.530;5.974;2022-12-07T01:08:45;36.72;;;23.75;;
57561;SDS011;43397;51.530;5.974;2022-12-07T01:11:12;33.15;;;21.48;;
57561;SDS011;43397;51.530;5.974;2022-12-07T01:13:39;35.80;;;22.77;;
57561;SDS011;43397;51.530;5.974;2022-12-07T01:16:05;34.53;;;21.52;;
57561;SDS011;43397;51.530;5.974;2022-12-07T01:18:34;32.15;;;21.58;;
57561;SDS011;43397;51.530;5.974;2022-12-07T01:21:02;33.10;;;22.13;;
57561;SDS011;43397;51.530;5.974;2022-12-07T01:23:30;34.90;;;21.75;;
57561;SDS011;43397;51.530;5.974;2022-12-07T01:25:56;42.70;;;23.05;;
57561;SDS011;43397;51.530;5.974;2022-12-07T01:28:22;37.90;;;23.02;;
57561;SDS011;43397;51.530;5.974;2022-12-07T01:30:54;43.60;;;24.98;;
57561;SDS011;43397;51.530;5.974;2022-12-07T01:33:20;42.28;;;25.30;;
57561;SDS011;43397;51.530;5.974;2022-12-07T01:35:47;38.92;;;23.58;;
57561;SDS011;43397;51.530;5.974;2022-12-07T01:38:13;39.53;;;25.15;;
57561;SDS011;43397;51.530;5.974;2022-12-07T01:40:39;40.47;;;24.23;;
57561;SDS011;43397;51.530;5.974;2022-12-07T01:43:08;41.63;;;24.90;;
57561;SDS011;43397;51.530;5.974;2022-12-07T01:45:40;38.10;;;24.35;;
57561;SDS011;43397;51.530;5.974;2022-12-07T01:48:07;41.95;;;26.42;;
57561;SDS011;43397;51.530;5.974;2022-12-07T01:50:35;38.28;;;23.27;;
57561;SDS011;43397;51.530;5.974;2022-12-07T01:53:03;38.08;;;24.52;;
57561;SDS011;43397;51.530;5.974;2022-12-07T01:55:31;46.47;;;24.35;;
57561;SDS011;43397;51.530;5.974;2022-12-07T01:57:59;39.92;;;24.20;;
57561;SDS011;43397;51.530;5.974;2022-12-07T02:00:25;41.33;;;24.02;;
57561;SDS011;43397;51.530;5.974;2022-12-07T02:02:52;36.05;;;23.20;;
57561;SDS011;43397;51.530;5.974;2022-12-07T02:05:20;43.65;;;25.42;;
57561;SDS011;43397;51.530;5.974;2022-12-07T02:07:48;38.28;;;23.52;;
57561;SDS011;43397;51.530;5.974;2022-12-07T02:10:18;36.05;;;22.13;;
57561;SDS011;43397;51.530;5.974;2022-12-07T02:12:48;41.72;;;23.73;;
57561;SDS011;43397;51.530;5.974;2022-12-07T02:15:16;35.95;;;21.85;;
57561;SDS011;43397;51.530;5.974;2022-12-07T02:17:45;39.35;;;23.75;;
57561;SDS011;43397;51.530;5.974;2022-12-07T02:20:18;38.25;;;22.52;;
57561;SDS011;43397;51.530;5.974;2022-12-07T02:22:54;39.40;;;22.30;;
57561;SDS011;43397;51.530;5.974;2022-12-07T02:25:44;37.03;;;22.30;;
57561;SDS011;43397;51.530;5.974;2022-12-07T02:28:26;35.92;;;22.90;;
57561;SDS011;43397;51.530;5.974;2022-12-07T02:30:57;38.40;;;23.23;;
57561;SDS011;43397;51.530;5.974;2022-12-07T02:33:28;37.80;;;23.88;;
57561;SDS011;43397;51.530;5.974;2022-12-07T02:35:59;41.42;;;22.73;;
57561;SDS011;43397;51.530;5.974;2022-12-07T02:38:31;35.35;;;23.55;;
57561;SDS011;43397;51.530;5.974;2022-12-07T02:41:02;33.85;;;20.92;;
57561;SDS011;43397;51.530;5.974;2022-12-07T02:43:32;36.45;;;21.25;;
57561;SDS011;43397;51.530;5.974;2022-12-07T02:46:04;36.83;;;21.80;;
57561;SDS011;43397;51.530;5.974;2022-12-07T02:48:33;42.88;;;21.52;;
57561;SDS011;43397;51.530;5.974;2022-12-07T02:51:01;34.15;;;20.15;;
57561;SDS011;43397;51.530;5.974;2022-12-07T02:53:30;34.13;;;21.63;;
57561;SDS011;43397;51.530;5.974;2022-12-07T02:55:57;35.35;;;20.45;;
57561;SDS011;43397;51.530;5.974;2022-12-07T02:58:27;26.13;;;19.83;;
57561;SDS011;43397;51.530;5.974;2022-12-07T03:01:04;31.67;;;19.85;;
57561;SDS011;43397;51.530;5.974;2022-12-07T03:03:36;32.97;;;19.35;;
57561;SDS011;43397;51.530;5.974;2022-12-07T03:06:06;31.52;;;19.73;;
57561;SDS011;43397;51.530;5.974;2022-12-07T03:08:41;36.47;;;19.75;;
57561;SDS011;43397;51.530;5.974;2022-12-07T03:11:13;34.72;;;19.92;;
57561;SDS011;43397;51.530;5.974;2022-12-07T03:13:45;32.92;;;19.52;;
57561;SDS011;43397;51.530;5.974;2022-12-07T03:16:15;31.42;;;18.75;;
57561;SDS011;43397;51.530;5.974;2022-12-07T03:18:44;32.15;;;20.48;;
57561;SDS011;43397;51.530;5.974;2022-12-07T03:21:14;35.92;;;20.48;;
57561;SDS011;43397;51.530;5.974;2022-12-07T03:23:43;31.58;;;19.83;;
57561;SDS011;43397;51.530;5.974;2022-12-07T03:26:12;33.50;;;20.15;;
57561;SDS011;43397;51.530;5.974;2022-12-07T03:28:42;33.33;;;19.13;;
57561;SDS011;43397;51.530;5.974;2022-12-07T03:31:14;32.20;;;18.63;;
57561;SDS011;43397;51.530;5.974;2022-12-07T03:33:46;31.60;;;19.20;;
57561;SDS011;43397;51.530;5.974;2022-12-07T03:36:20;32.30;;;20.48;;
57561;SDS011;43397;51.530;5.974;2022-12-07T03:38:53;34.25;;;20.48;;
57561;SDS011;43397;51.530;5.974;2022-12-07T03:41:25;35.70;;;20.95;;
57561;SDS011;43397;51.530;5.974;2022-12-07T03:46:24;32.92;;;20.40;;
57561;SDS011;43397;51.530;5.974;2022-12-07T03:48:59;36.00;;;22.58;;
57561;SDS011;43397;51.530;5.974;2022-12-07T03:51:31;37.55;;;21.15;;
57561;SDS011;43397;51.530;5.974;2022-12-07T03:54:05;38.05;;;22.33;;
57561;SDS011;43397;51.530;5.974;2022-12-07T03:56:36;40.85;;;23.67;;
57561;SDS011;43397;51.530;5.974;2022-12-07T03:59:03;36.90;;;22.75;;
57561;SDS011;43397;51.530;5.974;2022-12-07T04:01:31;33.45;;;19.85;;
57561;SDS011;43397;51.530;5.974;2022-12-07T04:03:57;34.65;;;22.27;;
57561;SDS011;43397;51.530;5.974;2022-12-07T04:06:23;35.38;;;20.73;;
57561;SDS011;43397;51.530;5.974;2022-12-07T04:08:48;35.50;;;21.05;;
57561;SDS011;43397;51.530;5.974;2022-12-07T04:11:14;38.83;;;21.48;;
57561;SDS011;43397;51.530;5.974;2022-12-07T04:13:40;35.00;;;20.38;;
57561;SDS011;43397;51.530;5.974;2022-12-07T04:16:05;33.42;;;19.83;;
57561;SDS011;43397;51.530;5.974;2022-12-07T04:18:33;34.53;;;20.40;;
57561;SDS011;43397;51.530;5.974;2022-12-07T04:20:58;29.35;;;19.10;;
57561;SDS011;43397;51.530;5.974;2022-12-07T04:23:24;33.63;;;19.48;;
57561;SDS011;43397;51.530;5.974;2022-12-07T04:25:50;30.27;;;18.48;;
57561;SDS011;43397;51.530;5.974;2022-12-07T04:28:16;31.08;;;19.90;;
57561;SDS011;43397;51.530;5.974;2022-12-07T04:30:42;31.17;;;20.08;;
57561;SDS011;43397;51.530;5.974;2022-12-07T04:33:07;34.50;;;19.40;;
57561;SDS011;43397;51.530;5.974;2022-12-07T04:35:34;35.42;;;19.02;;
57561;SDS011;43397;51.530;5.974;2022-12-07T04:38:00;32.65;;;20.80;;
57561;SDS011;43397;51.530;5.974;2022-12-07T04:40:27;33.45;;;19.95;;
57561;SDS011;43397;51.530;5.974;2022-12-07T04:42:52;34.67;;;19.75;;
57561;SDS011;43397;51.530;5.974;2022-12-07T04:45:18;35.40;;;19.30;;
57561;SDS011;43397;51.530;5.974;2022-12-07T04:47:44;38.63;;;20.30;;
57561;SDS011;43397;51.530;5.974;2022-12-07T04:50:09;41.05;;;21.33;;
57561;SDS011;43397;51.530;5.974;2022-12-07T04:52:37;36.53;;;21.55;;
57561;SDS011;43397;51.530;5.974;2022-12-07T04:55:03;36.30;;;21.75;;
57561;SDS011;43397;51.530;5.974;2022-12-07T04:57:29;35.35;;;21.92;;
57561;SDS011;43397;51.530;5.974;2022-12-07T04:59:54;38.60;;;21.50;;
57561;SDS011;43397;51.530;5.974;2022-12-07T05:02:20;38.30;;;22.90;;
57561;SDS011;43397;51.530;5.974;2022-12-07T05:04:46;31.92;;;20.20;;
57561;SDS011;43397;51.530;5.974;2022-12-07T05:07:11;35.30;;;20.95;;
57561;SDS011;43397;51.530;5.974;2022-12-07T05:09:38;40.92;;;22.83;;
57561;SDS011;43397;51.530;5.974;2022-12-07T05:12:05;34.97;;;20.80;;
57561;SDS011;43397;51.530;5.974;2022-12-07T05:14:31;37.92;;;20.50;;
57561;SDS011;43397;51.530;5.974;2022-12-07T05:16:56;34.55;;;18.83;;
57561;SDS011;43397;51.530;5.974;2022-12-07T05:19:22;32.90;;;17.95;;
57561;SDS011;43397;51.530;5.974;2022-12-07T05:21:48;33.00;;;18.55;;
57561;SDS011;43397;51.530;5.974;2022-12-07T05:24:14;31.25;;;18.88;;
57561;SDS011;43397;51.530;5.974;2022-12-07T05:26:42;31.20;;;19.08;;
57561;SDS011;43397;51.530;5.974;2022-12-07T05:29:10;30.58;;;18.70;;
57561;SDS011;43397;51.530;5.974;2022-12-07T05:31:36;31.88;;;18.10;;
57561;SDS011;43397;51.530;5.974;2022-12-07T05:34:02;29.45;;;15.60;;
57561;SDS011;43397;51.530;5.974;2022-12-07T05:36:27;28.02;;;15.65;;
57561;SDS011;43397;51.530;5.974;2022-12-07T05:38:53;27.15;;;15.73;;
57561;SDS011;43397;51.530;5.974;2022-12-07T05:41:19;23.33;;;14.77;;
57561;SDS011;43397;51.530;5.974;2022-12-07T05:43:46;25.70;;;15.55;;
57561;SDS011;43397;51.530;5.974;2022-12-07T05:46:12;22.40;;;13.90;;
57561;SDS011;43397;51.530;5.974;2022-12-07T05:48:37;24.40;;;15.30;;
57561;SDS011;43397;51.530;5.974;2022-12-07T05:51:03;22.73;;;13.32;;
57561;SDS011;43397;51.530;5.974;2022-12-07T05:53:29;26.45;;;15.27;;
57561;SDS011;43397;51.530;5.974;2022-12-07T05:55:54;26.25;;;14.60;;
57561;SDS011;43397;51.530;5.974;2022-12-07T05:58:20;25.50;;;15.55;;
57561;SDS011;43397;51.530;5.974;2022-12-07T06:00:47;27.08;;;15.68;;
57561;SDS011;43397;51.530;5.974;2022-12-07T06:03:13;34.08;;;15.70;;
57561;SDS011;43397;51.530;5.974;2022-12-07T06:05:38;28.42;;;16.30;;
57561;SDS011;43397;51.530;5.974;2022-12-07T06:08:04;29.30;;;16.60;;
57561;SDS011;43397;51.530;5.974;2022-12-07T06:10:30;29.20;;;18.15;;
57561;SDS011;43397;51.530;5.974;2022-12-07T06:12:56;31.55;;;16.42;;
57561;SDS011;43397;51.530;5.974;2022-12-07T06:15:21;27.92;;;15.27;;
57561;SDS011;43397;51.530;5.974;2022-12-07T06:17:48;28.90;;;17.40;;
57561;SDS011;43397;51.530;5.974;2022-12-07T06:20:14;33.65;;;17.42;;
57561;SDS011;43397;51.530;5.974;2022-12-07T06:22:40;29.08;;;16.80;;
57561;SDS011;43397;51.530;5.974;2022-12-07T06:25:06;33.83;;;16.00;;
57561;SDS011;43397;51.530;5.974;2022-12-07T06:27:32;30.95;;;16.80;;
57561;SDS011;43397;51.530;5.974;2022-12-07T06:29:58;27.52;;;17.77;;
57561;SDS011;43397;51.530;5.974;2022-12-07T06:32:24;29.73;;;16.92;;
57561;SDS011;43397;51.530;5.974;2022-12-07T06:34:51;25.75;;;16.23;;
57561;SDS011;43397;51.530;5.974;2022-12-07T06:37:17;28.02;;;16.48;;
57561;SDS011;43397;51.530;5.974;2022-12-07T06:39:42;31.98;;;16.98;;
57561;SDS011;43397;51.530;5.974;2022-12-07T06:42:08;31.65;;;16.42;;
57561;SDS011;43397;51.530;5.974;2022-12-07T06:44:34;27.67;;;17.27;;
57561;SDS011;43397;51.530;5.974;2022-12-07T06:46:59;28.98;;;17.30;;
57561;SDS011;43397;51.530;5.974;2022-12-07T06:49:25;29.17;;;15.85;;
57561;SDS011;43397;51.530;5.974;2022-12-07T06:51:52;27.85;;;16.40;;
57561;SDS011;43397;51.530;5.974;2022-12-07T06:54:18;31.10;;;17.58;;
57561;SDS011;43397;51.530;5.974;2022-12-07T06:56:44;33.72;;;17.20;;
57561;SDS011;43397;51.530;5.974;2022-12-07T06:59:10;30.75;;;17.15;;
57561;SDS011;43397;51.530;5.974;2022-12-07T07:01:36;36.47;;;18.25;;
57561;SDS011;43397;51.530;5.974;2022-12-07T07:04:02;32.58;;;17.48;;
57561;SDS011;43397;51.530;5.974;2022-12-07T07:06:27;28.00;;;17.60;;
57561;SDS011;43397;51.530;5.974;2022-12-07T07:08:54;32.03;;;18.73;;
57561;SDS011;43397;51.530;5.974;2022-12-07T07:11:21;31.45;;;17.67;;
57561;SDS011;43397;51.530;5.974;2022-12-07T07:13:46;32.95;;;18.20;;
57561;SDS011;43397;51.530;5.974;2022-12-07T07:16:12;35.03;;;19.15;;
57561;SDS011;43397;51.530;5.974;2022-12-07T07:18:38;30.58;;;17.85;;
57561;SDS011;43397;51.530;5.974;2022-12-07T07:21:04;34.50;;;18.85;;
57561;SDS011;43397;51.530;5.974;2022-12-07T07:23:30;33.15;;;17.95;;
57561;SDS011;43397;51.530;5.974;2022-12-07T07:25:57;34.13;;;17.67;;
57561;SDS011;43397;51.530;5.974;2022-12-07T07:28:23;30.15;;;18.02;;
57561;SDS011;43397;51.530;5.974;2022-12-07T07:30:48;36.15;;;19.45;;
57561;SDS011;43397;51.530;5.974;2022-12-07T07:33:14;33.65;;;17.52;;
57561;SDS011;43397;51.530;5.974;2022-12-07T07:35:40;31.48;;;17.73;;
57561;SDS011;43397;51.530;5.974;2022-12-07T07:38:05;33.25;;;19.13;;
57561;SDS011;43397;51.530;5.974;2022-12-07T07:40:32;35.45;;;18.65;;
57561;SDS011;43397;51.530;5.974;2022-12-07T07:42:59;37.72;;;20.08;;
57561;SDS011;43397;51.530;5.974;2022-12-07T07:45:26;29.30;;;18.30;;
57561;SDS011;43397;51.530;5.974;2022-12-07T07:47:52;36.03;;;18.42;;
57561;SDS011;43397;51.530;5.974;2022-12-07T07:50:18;34.08;;;18.95;;
57561;SDS011;43397;51.530;5.974;2022-12-07T07:52:44;37.67;;;19.20;;
57561;SDS011;43397;51.530;5.974;2022-12-07T07:55:10;31.48;;;18.08;;
57561;SDS011;43397;51.530;5.974;2022-12-07T07:57:37;34.85;;;19.25;;
57561;SDS011;43397;51.530;5.974;2022-12-07T08:00:06;30.58;;;18.70;;
57561;SDS011;43397;51.530;5.974;2022-12-07T08:02:34;33.95;;;18.60;;
57561;SDS011;43397;51.530;5.974;2022-12-07T08:05:00;31.70;;;18.67;;
57561;SDS011;43397;51.530;5.974;2022-12-07T08:07:27;30.55;;;19.30;;
57561;SDS011;43397;51.530;5.974;2022-12-07T08:09:53;30.75;;;17.50;;
57561;SDS011;43397;51.530;5.974;2022-12-07T08:12:19;32.65;;;17.52;;
57561;SDS011;43397;51.530;5.974;2022-12-07T08:14:45;31.45;;;17.85;;
57561;SDS011;43397;51.530;5.974;2022-12-07T08:17:12;34.83;;;19.40;;
57561;SDS011;43397;51.530;5.974;2022-12-07T08:19:38;31.80;;;18.35;;
57561;SDS011;43397;51.530;5.974;2022-12-07T08:22:03;27.90;;;17.73;;
57561;SDS011;43397;51.530;5.974;2022-12-07T08:24:29;30.77;;;17.33;;
57561;SDS011;43397;51.530;5.974;2022-12-07T08:26:55;28.70;;;17.55;;
57561;SDS011;43397;51.530;5.974;2022-12-07T08:29:20;28.38;;;17.58;;
57561;SDS011;43397;51.530;5.974;2022-12-07T08:31:46;28.35;;;17.85;;
57561;SDS011;43397;51.530;5.974;2022-12-07T08:34:14;30.27;;;19.25;;
57561;SDS011;43397;51.530;5.974;2022-12-07T08:36:40;31.38;;;17.05;;
57561;SDS011;43397;51.530;5.974;2022-12-07T08:39:05;33.00;;;18.48;;
57561;SDS011;43397;51.530;5.974;2022-12-07T08:41:31;32.63;;;19.92;;
57561;SDS011;43397;51.530;5.974;2022-12-07T08:43:57;30.08;;;18.33;;
57561;SDS011;43397;51.530;5.974;2022-12-07T08:46:24;30.08;;;17.80;;
57561;SDS011;43397;51.530;5.974;2022-12-07T08:48:54;28.35;;;17.98;;
57561;SDS011;43397;51.530;5.974;2022-12-07T08:51:25;24.73;;;17.20;;
57561;SDS011;43397;51.530;5.974;2022-12-07T08:53:51;30.52;;;19.02;;
57561;SDS011;43397;51.530;5.974;2022-12-07T08:56:17;26.58;;;17.10;;
57561;SDS011;43397;51.530;5.974;2022-12-07T08:58:43;24.95;;;16.40;;
57561;SDS011;43397;51.530;5.974;2022-12-07T09:01:09;25.88;;;15.93;;
57561;SDS011;43397;51.530;5.974;2022-12-07T09:03:35;24.05;;;14.95;;
57561;SDS011;43397;51.530;5.974;2022-12-07T09:06:01;24.25;;;14.90;;
57561;SDS011;43397;51.530;5.974;2022-12-07T09:08:29;22.15;;;15.13;;
57561;SDS011;43397;51.530;5.974;2022-12-07T09:10:59;21.45;;;13.95;;
57561;SDS011;43397;51.530;5.974;2022-12-07T09:13:25;23.45;;;14.68;;
57561;SDS011;43397;51.530;5.974;2022-12-07T09:15:50;24.35;;;15.60;;
57561;SDS011;43397;51.530;5.974;2022-12-07T09:18:16;19.17;;;14.40;;
57561;SDS011;43397;51.530;5.974;2022-12-07T09:20:42;21.98;;;15.25;;
57561;SDS011;43397;51.530;5.974;2022-12-07T09:23:08;20.13;;;13.45;;
57561;SDS011;43397;51.530;5.974;2022-12-07T09:25:35;20.05;;;14.35;;
57561;SDS011;43397;51.530;5.974;2022-12-07T09:28:01;21.00;;;13.93;;
57561;SDS011;43397;51.530;5.974;2022-12-07T09:30:27;19.50;;;12.77;;
57561;SDS011;43397;51.530;5.974;2022-12-07T09:32:53;19.90;;;13.30;;
57561;SDS011;43397;51.530;5.974;2022-12-07T09:35:19;21.08;;;14.07;;
57561;SDS011;43397;51.530;5.974;2022-12-07T09:37:44;21.60;;;13.27;;
57561;SDS011;43397;51.530;5.974;2022-12-07T09:40:11;18.95;;;12.82;;
57561;SDS011;43397;51.530;5.974;2022-12-07T09:42:41;17.13;;;12.10;;
57561;SDS011;43397;51.530;5.974;2022-12-07T09:45:12;20.40;;;13.63;;
57561;SDS011;43397;51.530;5.974;2022-12-07T09:47:40;19.00;;;12.18;;
57561;SDS011;43397;51.530;5.974;2022-12-07T09:50:10;22.65;;;13.93;;
57561;SDS011;43397;51.530;5.974;2022-12-07T09:52:38;21.02;;;12.07;;
57561;SDS011;43397;51.530;5.974;2022-12-07T09:55:09;15.20;;;11.52;;
57561;SDS011;43397;51.530;5.974;2022-12-07T09:57:37;18.45;;;11.40;;
57561;SDS011;43397;51.530;5.974;2022-12-07T10:00:07;19.35;;;11.50;;
57561;SDS011;43397;51.530;5.974;2022-12-07T10:02:38;18.13;;;12.40;;
57561;SDS011;43397;51.530;5.974;2022-12-07T10:05:06;18.85;;;11.55;;
57561;SDS011;43397;51.530;5.974;2022-12-07T10:07:36;19.08;;;12.13;;
57561;SDS011;43397;51.530;5.974;2022-12-07T10:10:03;22.20;;;12.85;;
57561;SDS011;43397;51.530;5.974;2022-12-07T10:12:29;18.67;;;11.85;;
57561;SDS011;43397;51.530;5.974;2022-12-07T10:14:56;19.75;;;12.30;;
57561;SDS011;43397;51.530;5.974;2022-12-07T10:17:28;19.48;;;12.10;;
57561;SDS011;43397;51.530;5.974;2022-12-07T10:20:08;18.48;;;12.02;;
57561;SDS011;43397;51.530;5.974;2022-12-07T10:22:55;21.75;;;13.23;;
57561;SDS011;43397;51.530;5.974;2022-12-07T10:25:24;18.38;;;13.00;;
57561;SDS011;43397;51.530;5.974;2022-12-07T10:28:02;25.23;;;13.70;;
57561;SDS011;43397;51.530;5.974;2022-12-07T10:30:46;17.58;;;12.70;;
57561;SDS011;43397;51.530;5.974;2022-12-07T10:33:21;21.55;;;13.02;;
57561;SDS011;43397;51.530;5.974;2022-12-07T10:35:54;18.83;;;11.38;;
57561;SDS011;43397;51.530;5.974;2022-12-07T10:38:20;16.33;;;11.35;;
57561;SDS011;43397;51.530;5.974;2022-12-07T10:40:47;15.63;;;10.35;;
57561;SDS011;43397;51.530;5.974;2022-12-07T10:43:27;13.68;;;8.77;;
57561;SDS011;43397;51.530;5.974;2022-12-07T10:46:06;15.25;;;9.32;;
57561;SDS011;43397;51.530;5.974;2022-12-07T10:48:45;18.95;;;10.43;;
57561;SDS011;43397;51.530;5.974;2022-12-07T10:51:19;22.52;;;10.45;;
57561;SDS011;43397;51.530;5.974;2022-12-07T10:53:54;38.05;;;13.07;;
57561;SDS011;43397;51.530;5.974;2022-12-07T10:56:35;26.00;;;10.60;;
57561;SDS011;43397;51.530;5.974;2022-12-07T10:59:19;29.13;;;11.55;;
57561;SDS011;43397;51.530;5.974;2022-12-07T11:02:00;13.40;;;8.65;;
57561;SDS011;43397;51.530;5.974;2022-12-07T11:04:39;15.60;;;9.35;;
57561;SDS011;43397;51.530;5.974;2022-12-07T11:07:17;12.20;;;8.32;;
57561;SDS011;43397;51.530;5.974;2022-12-07T11:09:56;12.93;;;7.20;;
57561;SDS011;43397;51.530;5.974;2022-12-07T11:12:31;11.02;;;6.85;;
57561;SDS011;43397;51.530;5.974;2022-12-07T11:15:12;13.48;;;6.65;;
57561;SDS011;43397;51.530;5.974;2022-12-07T11:17:43;9.40;;;7.05;;
57561;SDS011;43397;51.530;5.974;2022-12-07T11:20:19;15.05;;;8.68;;
57561;SDS011;43397;51.530;5.974;2022-12-07T11:22:55;9.77;;;5.10;;
57561;SDS011;43397;51.530;5.974;2022-12-07T11:25:30;11.15;;;5.55;;
57561;SDS011;43397;51.530;5.974;2022-12-07T11:28:02;11.93;;;5.32;;
57561;SDS011;43397;51.530;5.974;2022-12-07T11:30:42;12.98;;;6.32;;
57561;SDS011;43397;51.530;5.974;2022-12-07T11:33:17;11.48;;;5.18;;
57561;SDS011;43397;51.530;5.974;2022-12-07T11:35:52;7.68;;;4.53;;
57561;SDS011;43397;51.530;5.974;2022-12-07T11:38:28;10.27;;;4.72;;
57561;SDS011;43397;51.530;5.974;2022-12-07T11:41:04;8.23;;;3.60;;
57561;SDS011;43397;51.530;5.974;2022-12-07T11:43:32;9.88;;;3.55;;
57561;SDS011;43397;51.530;5.974;2022-12-07T11:46:02;6.97;;;3.55;;
57561;SDS011;43397;51.530;5.974;2022-12-07T11:48:31;7.82;;;3.60;;
57561;SDS011;43397;51.530;5.974;2022-12-07T11:51:02;8.50;;;3.33;;
57561;SDS011;43397;51.530;5.974;2022-12-07T11:53:30;8.13;;;3.58;;
57561;SDS011;43397;51.530;5.974;2022-12-07T11:56:02;8.02;;;3.35;;
57561;SDS011;43397;51.530;5.974;2022-12-07T11:58:39;8.70;;;3.75;;
57561;SDS011;43397;51.530;5.974;2022-12-07T12:01:24;10.20;;;4.13;;
57561;SDS011;43397;51.530;5.974;2022-12-07T12:03:56;12.55;;;4.47;;
57561;SDS011;43397;51.530;5.974;2022-12-07T12:06:28;6.95;;;4.35;;
57561;SDS011;43397;51.530;5.974;2022-12-07T12:08:54;7.90;;;4.43;;
57561;SDS011;43397;51.530;5.974;2022-12-07T12:11:30;14.95;;;4.93;;
57561;SDS011;43397;51.530;5.974;2022-12-07T12:14:14;8.15;;;3.80;;
57561;SDS011;43397;51.530;5.974;2022-12-07T12:16:57;9.07;;;4.00;;
57561;SDS011;43397;51.530;5.974;2022-12-07T12:19:36;7.22;;;4.07;;
57561;SDS011;43397;51.530;5.974;2022-12-07T12:22:10;9.45;;;3.22;;
57561;SDS011;43397;51.530;5.974;2022-12-07T12:24:39;6.65;;;3.08;;
57561;SDS011;43397;51.530;5.974;2022-12-07T12:27:09;8.43;;;3.70;;
